sensor_id;sensor_type;location;lat;lon;timestamp;P1;durP1;ratioP1;P2;durP2;ratioP2
70920;SDS011;58572;48.110;19.838;2022-11-20T00:01:16;27.10;;;11.80;;
70920;SDS011;58572;48.110;19.838;2022-11-20T00:03:45;24.83;;;10.93;;
70920;SDS011;58572;48.110;19.838;2022-11-20T00:06:14;26.63;;;11.65;;
70920;SDS011;58572;48.110;19.838;2022-11-20T00:08:43;27.80;;;11.48;;
70920;SDS011;58572;48.110;19.838;2022-11-20T00:13:39;25.88;;;11.05;;
70920;SDS011;58572;48.110;19.838;2022-11-20T00:16:07;24.67;;;10.55;;
70920;SDS011;58572;48.110;19.838;2022-11-20T00:18:37;26.73;;;10.30;;
70920;SDS011;58572;48.110;19.838;2022-11-20T00:21:04;26.80;;;12.63;;
70920;SDS011;58572;48.110;19.838;2022-11-20T00:23:34;28.75;;;11.80;;
70920;SDS011;58572;48.110;19.838;2022-11-20T00:26:02;29.15;;;11.95;;
70920;SDS011;58572;48.110;19.838;2022-11-20T00:28:30;28.40;;;12.80;;
70920;SDS011;58572;48.110;19.838;2022-11-20T00:31:00;27.55;;;12.75;;
70920;SDS011;58572;48.110;19.838;2022-11-20T00:33:29;26.73;;;12.90;;
70920;SDS011;58572;48.110;19.838;2022-11-20T00:35:59;24.45;;;10.43;;
70920;SDS011;58572;48.110;19.838;2022-11-20T00:38:27;26.25;;;12.05;;
70920;SDS011;58572;48.110;19.838;2022-11-20T00:40:57;31.67;;;13.75;;
70920;SDS011;58572;48.110;19.838;2022-11-20T00:43:25;33.08;;;13.38;;
70920;SDS011;58572;48.110;19.838;2022-11-20T00:45:56;28.88;;;12.95;;
70920;SDS011;58572;48.110;19.838;2022-11-20T00:48:24;30.42;;;13.65;;
70920;SDS011;58572;48.110;19.838;2022-11-20T00:50:51;30.10;;;13.75;;
70920;SDS011;58572;48.110;19.838;2022-11-20T00:53:18;30.00;;;12.48;;
70920;SDS011;58572;48.110;19.838;2022-11-20T00:55:52;30.75;;;12.68;;
70920;SDS011;58572;48.110;19.838;2022-11-20T00:58:22;29.00;;;12.15;;
70920;SDS011;58572;48.110;19.838;2022-11-20T01:00:50;42.47;;;16.38;;
70920;SDS011;58572;48.110;19.838;2022-11-20T01:03:17;30.00;;;12.73;;
70920;SDS011;58572;48.110;19.838;2022-11-20T01:05:45;26.80;;;12.90;;
70920;SDS011;58572;48.110;19.838;2022-11-20T01:08:12;29.48;;;12.40;;
70920;SDS011;58572;48.110;19.838;2022-11-20T01:10:39;29.77;;;12.68;;
70920;SDS011;58572;48.110;19.838;2022-11-20T01:13:06;26.98;;;11.43;;
70920;SDS011;58572;48.110;19.838;2022-11-20T01:15:51;25.73;;;10.88;;
70920;SDS011;58572;48.110;19.838;2022-11-20T01:18:19;23.35;;;11.52;;
70920;SDS011;58572;48.110;19.838;2022-11-20T01:20:46;24.42;;;11.75;;
70920;SDS011;58572;48.110;19.838;2022-11-20T01:23:13;26.50;;;11.25;;
70920;SDS011;58572;48.110;19.838;2022-11-20T01:25:40;23.75;;;10.55;;
70920;SDS011;58572;48.110;19.838;2022-11-20T01:28:07;25.25;;;11.75;;
70920;SDS011;58572;48.110;19.838;2022-11-20T01:30:34;24.17;;;11.10;;
70920;SDS011;58572;48.110;19.838;2022-11-20T01:33:02;21.10;;;10.90;;
70920;SDS011;58572;48.110;19.838;2022-11-20T01:35:30;23.50;;;9.65;;
70920;SDS011;58572;48.110;19.838;2022-11-20T01:37:57;21.77;;;9.40;;
70920;SDS011;58572;48.110;19.838;2022-11-20T01:40:24;17.88;;;9.55;;
70920;SDS011;58572;48.110;19.838;2022-11-20T01:42:53;22.35;;;10.20;;
70920;SDS011;58572;48.110;19.838;2022-11-20T01:45:56;20.27;;;8.27;;
70920;SDS011;58572;48.110;19.838;2022-11-20T01:48:31;21.00;;;10.25;;
70920;SDS011;58572;48.110;19.838;2022-11-20T01:51:03;18.75;;;9.55;;
70920;SDS011;58572;48.110;19.838;2022-11-20T01:53:34;17.17;;;7.78;;
70920;SDS011;58572;48.110;19.838;2022-11-20T01:56:05;16.13;;;7.22;;
70920;SDS011;58572;48.110;19.838;2022-11-20T01:58:35;14.35;;;8.25;;
70920;SDS011;58572;48.110;19.838;2022-11-20T02:01:06;13.95;;;7.28;;
70920;SDS011;58572;48.110;19.838;2022-11-20T02:03:35;17.80;;;8.00;;
70920;SDS011;58572;48.110;19.838;2022-11-20T02:06:04;17.58;;;7.80;;
70920;SDS011;58572;48.110;19.838;2022-11-20T02:08:36;16.17;;;7.22;;
70920;SDS011;58572;48.110;19.838;2022-11-20T02:11:05;15.00;;;6.78;;
70920;SDS011;58572;48.110;19.838;2022-11-20T02:13:32;18.73;;;7.68;;
70920;SDS011;58572;48.110;19.838;2022-11-20T02:16:15;18.23;;;8.35;;
70920;SDS011;58572;48.110;19.838;2022-11-20T02:18:47;15.00;;;6.95;;
70920;SDS011;58572;48.110;19.838;2022-11-20T02:21:22;13.30;;;6.47;;
70920;SDS011;58572;48.110;19.838;2022-11-20T02:24:03;16.02;;;7.18;;
70920;SDS011;58572;48.110;19.838;2022-11-20T02:26:33;18.20;;;7.53;;
70920;SDS011;58572;48.110;19.838;2022-11-20T02:29:04;14.82;;;7.03;;
70920;SDS011;58572;48.110;19.838;2022-11-20T02:31:38;15.80;;;7.63;;
70920;SDS011;58572;48.110;19.838;2022-11-20T02:34:08;16.73;;;7.32;;
70920;SDS011;58572;48.110;19.838;2022-11-20T02:36:36;16.77;;;8.23;;
70920;SDS011;58572;48.110;19.838;2022-11-20T02:39:07;17.67;;;7.43;;
70920;SDS011;58572;48.110;19.838;2022-11-20T02:41:37;17.80;;;9.40;;
70920;SDS011;58572;48.110;19.838;2022-11-20T02:44:04;19.10;;;8.60;;
70920;SDS011;58572;48.110;19.838;2022-11-20T02:46:32;17.23;;;8.05;;
70920;SDS011;58572;48.110;19.838;2022-11-20T02:49:00;17.27;;;8.50;;
70920;SDS011;58572;48.110;19.838;2022-11-20T02:51:28;20.70;;;9.68;;
70920;SDS011;58572;48.110;19.838;2022-11-20T02:53:55;18.15;;;7.55;;
70920;SDS011;58572;48.110;19.838;2022-11-20T02:56:24;19.90;;;9.32;;
70920;SDS011;58572;48.110;19.838;2022-11-20T02:58:51;10.80;;;4.88;;
70920;SDS011;58572;48.110;19.838;2022-11-20T03:01:19;23.08;;;10.00;;
70920;SDS011;58572;48.110;19.838;2022-11-20T03:03:46;14.25;;;7.25;;
70920;SDS011;58572;48.110;19.838;2022-11-20T03:06:14;21.00;;;9.95;;
70920;SDS011;58572;48.110;19.838;2022-11-20T03:08:41;15.75;;;7.82;;
70920;SDS011;58572;48.110;19.838;2022-11-20T03:11:08;21.60;;;9.27;;
70920;SDS011;58572;48.110;19.838;2022-11-20T03:13:37;18.33;;;7.68;;
70920;SDS011;58572;48.110;19.838;2022-11-20T03:16:08;20.85;;;11.30;;
70920;SDS011;58572;48.110;19.838;2022-11-20T03:18:36;17.08;;;8.27;;
70920;SDS011;58572;48.110;19.838;2022-11-20T03:21:04;20.67;;;8.52;;
70920;SDS011;58572;48.110;19.838;2022-11-20T03:23:31;16.67;;;7.63;;
70920;SDS011;58572;48.110;19.838;2022-11-20T03:26:09;18.27;;;8.90;;
70920;SDS011;58572;48.110;19.838;2022-11-20T03:28:38;16.90;;;8.20;;
70920;SDS011;58572;48.110;19.838;2022-11-20T03:31:06;17.77;;;8.23;;
70920;SDS011;58572;48.110;19.838;2022-11-20T03:33:34;20.55;;;8.48;;
70920;SDS011;58572;48.110;19.838;2022-11-20T03:36:02;16.48;;;8.27;;
70920;SDS011;58572;48.110;19.838;2022-11-20T03:38:29;19.27;;;8.93;;
70920;SDS011;58572;48.110;19.838;2022-11-20T03:41:00;17.42;;;7.50;;
70920;SDS011;58572;48.110;19.838;2022-11-20T03:43:28;14.13;;;7.20;;
70920;SDS011;58572;48.110;19.838;2022-11-20T03:45:57;16.15;;;7.57;;
70920;SDS011;58572;48.110;19.838;2022-11-20T03:48:24;18.33;;;8.10;;
70920;SDS011;58572;48.110;19.838;2022-11-20T03:50:51;14.57;;;7.65;;
70920;SDS011;58572;48.110;19.838;2022-11-20T03:53:19;19.75;;;8.35;;
70920;SDS011;58572;48.110;19.838;2022-11-20T03:55:50;19.10;;;7.22;;
70920;SDS011;58572;48.110;19.838;2022-11-20T03:58:17;38.60;;;12.73;;
70920;SDS011;58572;48.110;19.838;2022-11-20T04:00:45;26.02;;;11.38;;
70920;SDS011;58572;48.110;19.838;2022-11-20T04:03:13;33.13;;;12.00;;
70920;SDS011;58572;48.110;19.838;2022-11-20T04:05:40;29.80;;;11.63;;
70920;SDS011;58572;48.110;19.838;2022-11-20T04:08:07;30.90;;;12.10;;
70920;SDS011;58572;48.110;19.838;2022-11-20T04:10:34;31.02;;;12.00;;
70920;SDS011;58572;48.110;19.838;2022-11-20T04:13:01;28.35;;;10.50;;
70920;SDS011;58572;48.110;19.838;2022-11-20T04:15:28;31.15;;;12.65;;
70920;SDS011;58572;48.110;19.838;2022-11-20T04:17:55;28.08;;;9.95;;
70920;SDS011;58572;48.110;19.838;2022-11-20T04:20:23;28.40;;;11.05;;
70920;SDS011;58572;48.110;19.838;2022-11-20T04:22:52;29.50;;;12.68;;
70920;SDS011;58572;48.110;19.838;2022-11-20T04:25:20;26.73;;;11.38;;
70920;SDS011;58572;48.110;19.838;2022-11-20T04:27:47;27.60;;;11.13;;
70920;SDS011;58572;48.110;19.838;2022-11-20T04:30:14;34.45;;;13.23;;
70920;SDS011;58572;48.110;19.838;2022-11-20T04:32:41;29.60;;;12.18;;
70920;SDS011;58572;48.110;19.838;2022-11-20T04:35:08;28.63;;;11.45;;
70920;SDS011;58572;48.110;19.838;2022-11-20T04:37:36;25.52;;;10.10;;
70920;SDS011;58572;48.110;19.838;2022-11-20T04:40:04;21.65;;;9.35;;
70920;SDS011;58572;48.110;19.838;2022-11-20T04:42:31;23.63;;;10.60;;
70920;SDS011;58572;48.110;19.838;2022-11-20T04:44:58;21.27;;;8.75;;
70920;SDS011;58572;48.110;19.838;2022-11-20T04:47:25;18.75;;;8.75;;
70920;SDS011;58572;48.110;19.838;2022-11-20T04:49:52;18.75;;;7.85;;
70920;SDS011;58572;48.110;19.838;2022-11-20T04:52:19;20.17;;;8.50;;
70920;SDS011;58572;48.110;19.838;2022-11-20T04:54:47;20.23;;;9.35;;
70920;SDS011;58572;48.110;19.838;2022-11-20T04:57:17;17.52;;;8.27;;
70920;SDS011;58572;48.110;19.838;2022-11-20T04:59:45;17.52;;;9.32;;
70920;SDS011;58572;48.110;19.838;2022-11-20T05:02:12;16.83;;;7.72;;
70920;SDS011;58572;48.110;19.838;2022-11-20T05:04:39;19.08;;;8.02;;
70920;SDS011;58572;48.110;19.838;2022-11-20T05:07:06;18.10;;;8.10;;
70920;SDS011;58572;48.110;19.838;2022-11-20T05:09:33;16.70;;;7.68;;
70920;SDS011;58572;48.110;19.838;2022-11-20T05:12:01;17.75;;;7.10;;
70920;SDS011;58572;48.110;19.838;2022-11-20T05:14:28;18.27;;;8.73;;
70920;SDS011;58572;48.110;19.838;2022-11-20T05:16:55;19.00;;;7.43;;
70920;SDS011;58572;48.110;19.838;2022-11-20T05:19:22;17.58;;;7.65;;
70920;SDS011;58572;48.110;19.838;2022-11-20T05:21:49;16.77;;;8.38;;
70920;SDS011;58572;48.110;19.838;2022-11-20T05:24:16;15.70;;;7.05;;
70920;SDS011;58572;48.110;19.838;2022-11-20T05:26:43;16.23;;;7.10;;
70920;SDS011;58572;48.110;19.838;2022-11-20T05:29:12;18.35;;;8.05;;
70920;SDS011;58572;48.110;19.838;2022-11-20T05:31:39;16.27;;;6.47;;
70920;SDS011;58572;48.110;19.838;2022-11-20T05:34:07;16.73;;;7.93;;
70920;SDS011;58572;48.110;19.838;2022-11-20T05:36:34;15.85;;;6.90;;
70920;SDS011;58572;48.110;19.838;2022-11-20T05:39:01;14.60;;;6.72;;
70920;SDS011;58572;48.110;19.838;2022-11-20T05:41:28;15.95;;;6.90;;
70920;SDS011;58572;48.110;19.838;2022-11-20T05:43:55;14.57;;;5.82;;
70920;SDS011;58572;48.110;19.838;2022-11-20T05:46:25;12.20;;;5.85;;
70920;SDS011;58572;48.110;19.838;2022-11-20T05:48:54;15.38;;;7.03;;
70920;SDS011;58572;48.110;19.838;2022-11-20T05:51:22;16.98;;;8.02;;
70920;SDS011;58572;48.110;19.838;2022-11-20T05:53:49;15.43;;;7.00;;
70920;SDS011;58572;48.110;19.838;2022-11-20T05:56:17;16.27;;;6.47;;
70920;SDS011;58572;48.110;19.838;2022-11-20T05:58:45;16.73;;;7.88;;
70920;SDS011;58572;48.110;19.838;2022-11-20T06:01:13;16.25;;;8.50;;
70920;SDS011;58572;48.110;19.838;2022-11-20T06:03:43;17.08;;;7.55;;
70920;SDS011;58572;48.110;19.838;2022-11-20T06:06:12;22.02;;;9.30;;
70920;SDS011;58572;48.110;19.838;2022-11-20T06:08:40;20.63;;;8.20;;
70920;SDS011;58572;48.110;19.838;2022-11-20T06:11:08;24.40;;;10.38;;
70920;SDS011;58572;48.110;19.838;2022-11-20T06:13:36;23.10;;;9.43;;
70920;SDS011;58572;48.110;19.838;2022-11-20T06:16:04;33.03;;;14.88;;
70920;SDS011;58572;48.110;19.838;2022-11-20T06:18:32;37.60;;;13.32;;
70920;SDS011;58572;48.110;19.838;2022-11-20T06:21:01;32.70;;;11.48;;
70920;SDS011;58572;48.110;19.838;2022-11-20T06:23:29;30.38;;;10.57;;
70920;SDS011;58572;48.110;19.838;2022-11-20T06:25:57;28.80;;;9.32;;
70920;SDS011;58572;48.110;19.838;2022-11-20T06:28:27;24.13;;;8.88;;
70920;SDS011;58572;48.110;19.838;2022-11-20T06:30:53;25.80;;;10.70;;
70920;SDS011;58572;48.110;19.838;2022-11-20T06:33:20;27.65;;;11.65;;
70920;SDS011;58572;48.110;19.838;2022-11-20T06:35:47;23.85;;;9.73;;
70920;SDS011;58572;48.110;19.838;2022-11-20T06:38:16;32.00;;;12.40;;
70920;SDS011;58572;48.110;19.838;2022-11-20T06:40:43;49.58;;;18.95;;
70920;SDS011;58572;48.110;19.838;2022-11-20T06:43:10;49.15;;;21.33;;
70920;SDS011;58572;48.110;19.838;2022-11-20T06:45:37;43.63;;;16.55;;
70920;SDS011;58572;48.110;19.838;2022-11-20T06:48:04;39.75;;;15.27;;
70920;SDS011;58572;48.110;19.838;2022-11-20T06:50:32;25.10;;;11.27;;
70920;SDS011;58572;48.110;19.838;2022-11-20T06:53:00;26.13;;;12.23;;
70920;SDS011;58572;48.110;19.838;2022-11-20T06:55:30;26.63;;;10.05;;
70920;SDS011;58572;48.110;19.838;2022-11-20T06:57:58;19.88;;;9.00;;
70920;SDS011;58572;48.110;19.838;2022-11-20T07:00:24;26.33;;;11.40;;
70920;SDS011;58572;48.110;19.838;2022-11-20T07:02:51;26.25;;;10.63;;
70920;SDS011;58572;48.110;19.838;2022-11-20T07:05:18;24.98;;;9.38;;
70920;SDS011;58572;48.110;19.838;2022-11-20T07:07:45;20.10;;;8.95;;
70920;SDS011;58572;48.110;19.838;2022-11-20T07:10:12;20.70;;;10.02;;
70920;SDS011;58572;48.110;19.838;2022-11-20T07:12:41;41.72;;;17.42;;
70920;SDS011;58572;48.110;19.838;2022-11-20T07:15:08;35.72;;;17.23;;
70920;SDS011;58572;48.110;19.838;2022-11-20T07:17:35;29.92;;;15.00;;
70920;SDS011;58572;48.110;19.838;2022-11-20T07:20:02;21.30;;;10.70;;
70920;SDS011;58572;48.110;19.838;2022-11-20T07:22:29;24.92;;;10.45;;
70920;SDS011;58572;48.110;19.838;2022-11-20T07:24:56;20.20;;;8.50;;
70920;SDS011;58572;48.110;19.838;2022-11-20T07:27:24;19.80;;;9.07;;
70920;SDS011;58572;48.110;19.838;2022-11-20T07:29:53;18.67;;;9.27;;
70920;SDS011;58572;48.110;19.838;2022-11-20T07:32:20;20.25;;;9.75;;
70920;SDS011;58572;48.110;19.838;2022-11-20T07:34:47;27.13;;;12.38;;
70920;SDS011;58572;48.110;19.838;2022-11-20T07:37:14;26.33;;;10.75;;
70920;SDS011;58572;48.110;19.838;2022-11-20T07:39:42;35.42;;;16.30;;
70920;SDS011;58572;48.110;19.838;2022-11-20T07:42:08;30.42;;;15.15;;
70920;SDS011;58572;48.110;19.838;2022-11-20T07:44:37;29.23;;;16.27;;
70920;SDS011;58572;48.110;19.838;2022-11-20T07:47:06;25.20;;;12.88;;
70920;SDS011;58572;48.110;19.838;2022-11-20T07:49:32;31.77;;;16.58;;
70920;SDS011;58572;48.110;19.838;2022-11-20T07:52:00;34.63;;;16.55;;
70920;SDS011;58572;48.110;19.838;2022-11-20T07:54:27;24.48;;;11.50;;
70920;SDS011;58572;48.110;19.838;2022-11-20T07:56:54;29.02;;;14.38;;
70920;SDS011;58572;48.110;19.838;2022-11-20T07:59:21;21.63;;;10.93;;
70920;SDS011;58572;48.110;19.838;2022-11-20T08:01:48;24.50;;;10.68;;
70920;SDS011;58572;48.110;19.838;2022-11-20T08:04:16;24.67;;;9.50;;
70920;SDS011;58572;48.110;19.838;2022-11-20T08:06:43;26.70;;;10.50;;
70920;SDS011;58572;48.110;19.838;2022-11-20T08:09:10;29.52;;;12.27;;
70920;SDS011;58572;48.110;19.838;2022-11-20T08:11:37;26.45;;;12.13;;
70920;SDS011;58572;48.110;19.838;2022-11-20T08:14:22;23.52;;;11.45;;
70920;SDS011;58572;48.110;19.838;2022-11-20T08:16:49;28.70;;;12.45;;
70920;SDS011;58572;48.110;19.838;2022-11-20T08:19:17;29.90;;;13.65;;
70920;SDS011;58572;48.110;19.838;2022-11-20T08:21:45;26.52;;;12.32;;
70920;SDS011;58572;48.110;19.838;2022-11-20T08:24:12;33.22;;;16.80;;
70920;SDS011;58572;48.110;19.838;2022-11-20T08:26:39;24.55;;;12.40;;
70920;SDS011;58572;48.110;19.838;2022-11-20T08:29:07;23.63;;;11.75;;
70920;SDS011;58572;48.110;19.838;2022-11-20T08:31:34;24.83;;;12.15;;
70920;SDS011;58572;48.110;19.838;2022-11-20T08:34:01;28.13;;;13.65;;
70920;SDS011;58572;48.110;19.838;2022-11-20T08:36:32;33.03;;;14.20;;
70920;SDS011;58572;48.110;19.838;2022-11-20T08:39:00;27.25;;;13.20;;
70920;SDS011;58572;48.110;19.838;2022-11-20T08:41:27;30.70;;;12.65;;
70920;SDS011;58572;48.110;19.838;2022-11-20T08:43:58;25.63;;;13.13;;
70920;SDS011;58572;48.110;19.838;2022-11-20T08:46:27;31.77;;;13.05;;
70920;SDS011;58572;48.110;19.838;2022-11-20T08:48:59;34.15;;;14.00;;
70920;SDS011;58572;48.110;19.838;2022-11-20T08:51:26;27.92;;;13.20;;
70920;SDS011;58572;48.110;19.838;2022-11-20T08:53:54;28.33;;;13.52;;
70920;SDS011;58572;48.110;19.838;2022-11-20T08:56:21;36.22;;;17.40;;
70920;SDS011;58572;48.110;19.838;2022-11-20T08:58:49;32.15;;;14.75;;
70920;SDS011;58572;48.110;19.838;2022-11-20T09:03:43;30.75;;;13.15;;
70920;SDS011;58572;48.110;19.838;2022-11-20T09:06:10;32.03;;;13.48;;
70920;SDS011;58572;48.110;19.838;2022-11-20T09:08:37;34.67;;;15.82;;
70920;SDS011;58572;48.110;19.838;2022-11-20T09:11:06;30.60;;;13.93;;
70920;SDS011;58572;48.110;19.838;2022-11-20T09:13:34;30.38;;;13.30;;
70920;SDS011;58572;48.110;19.838;2022-11-20T09:16:03;33.58;;;14.57;;
70920;SDS011;58572;48.110;19.838;2022-11-20T09:18:31;35.30;;;17.38;;
70920;SDS011;58572;48.110;19.838;2022-11-20T09:21:02;26.65;;;13.57;;
70920;SDS011;58572;48.110;19.838;2022-11-20T09:23:31;32.15;;;14.45;;
70920;SDS011;58572;48.110;19.838;2022-11-20T09:26:01;30.27;;;15.07;;
70920;SDS011;58572;48.110;19.838;2022-11-20T09:28:30;33.53;;;14.02;;
70920;SDS011;58572;48.110;19.838;2022-11-20T09:30:58;42.00;;;17.80;;
70920;SDS011;58572;48.110;19.838;2022-11-20T09:33:25;40.50;;;20.77;;
70920;SDS011;58572;48.110;19.838;2022-11-20T09:35:52;30.95;;;15.25;;
70920;SDS011;58572;48.110;19.838;2022-11-20T09:38:19;77.03;;;34.03;;
70920;SDS011;58572;48.110;19.838;2022-11-20T09:40:48;33.28;;;16.67;;
70920;SDS011;58572;48.110;19.838;2022-11-20T09:43:25;32.33;;;15.93;;
70920;SDS011;58572;48.110;19.838;2022-11-20T09:46:03;32.30;;;14.50;;
70920;SDS011;58572;48.110;19.838;2022-11-20T09:48:38;30.80;;;14.52;;
70920;SDS011;58572;48.110;19.838;2022-11-20T09:51:29;29.77;;;12.90;;
70920;SDS011;58572;48.110;19.838;2022-11-20T09:54:08;34.25;;;15.70;;
70920;SDS011;58572;48.110;19.838;2022-11-20T09:56:42;36.40;;;15.38;;
70920;SDS011;58572;48.110;19.838;2022-11-20T09:59:15;32.33;;;15.68;;
70920;SDS011;58572;48.110;19.838;2022-11-20T10:01:55;31.50;;;13.45;;
70920;SDS011;58572;48.110;19.838;2022-11-20T10:04:23;35.08;;;15.18;;
70920;SDS011;58572;48.110;19.838;2022-11-20T10:06:52;29.60;;;13.75;;
70920;SDS011;58572;48.110;19.838;2022-11-20T10:09:27;32.45;;;14.48;;
70920;SDS011;58572;48.110;19.838;2022-11-20T10:12:02;28.15;;;13.50;;
70920;SDS011;58572;48.110;19.838;2022-11-20T10:14:38;30.17;;;13.93;;
70920;SDS011;58572;48.110;19.838;2022-11-20T10:17:19;34.08;;;16.23;;
70920;SDS011;58572;48.110;19.838;2022-11-20T10:20:00;31.98;;;16.10;;
70920;SDS011;58572;48.110;19.838;2022-11-20T10:22:44;28.75;;;13.73;;
70920;SDS011;58572;48.110;19.838;2022-11-20T10:25:20;33.60;;;16.20;;
70920;SDS011;58572;48.110;19.838;2022-11-20T10:28:08;30.17;;;14.15;;
70920;SDS011;58572;48.110;19.838;2022-11-20T10:30:45;32.40;;;15.32;;
70920;SDS011;58572;48.110;19.838;2022-11-20T10:33:20;24.73;;;12.55;;
70920;SDS011;58572;48.110;19.838;2022-11-20T10:35:52;28.42;;;12.18;;
70920;SDS011;58572;48.110;19.838;2022-11-20T10:38:30;21.58;;;10.77;;
70920;SDS011;58572;48.110;19.838;2022-11-20T10:41:02;27.10;;;12.10;;
70920;SDS011;58572;48.110;19.838;2022-11-20T10:43:50;22.73;;;10.35;;
70920;SDS011;58572;48.110;19.838;2022-11-20T10:46:22;22.20;;;11.75;;
70920;SDS011;58572;48.110;19.838;2022-11-20T10:48:52;24.35;;;10.73;;
70920;SDS011;58572;48.110;19.838;2022-11-20T10:51:22;24.08;;;12.15;;
70920;SDS011;58572;48.110;19.838;2022-11-20T10:53:58;22.42;;;11.38;;
70920;SDS011;58572;48.110;19.838;2022-11-20T10:56:38;20.52;;;9.63;;
70920;SDS011;58572;48.110;19.838;2022-11-20T11:02:14;24.48;;;10.18;;
70920;SDS011;58572;48.110;19.838;2022-11-20T11:04:45;21.35;;;9.95;;
70920;SDS011;58572;48.110;19.838;2022-11-20T11:07:15;21.10;;;8.38;;
70920;SDS011;58572;48.110;19.838;2022-11-20T11:09:46;24.05;;;10.68;;
70920;SDS011;58572;48.110;19.838;2022-11-20T11:12:15;22.67;;;9.70;;
70920;SDS011;58572;48.110;19.838;2022-11-20T11:14:44;27.90;;;12.77;;
70920;SDS011;58572;48.110;19.838;2022-11-20T11:17:26;22.15;;;9.93;;
70920;SDS011;58572;48.110;19.838;2022-11-20T11:20:03;24.80;;;10.38;;
70920;SDS011;58572;48.110;19.838;2022-11-20T11:22:33;26.88;;;12.50;;
70920;SDS011;58572;48.110;19.838;2022-11-20T11:25:11;22.42;;;10.73;;
70920;SDS011;58572;48.110;19.838;2022-11-20T11:27:46;20.77;;;9.30;;
70920;SDS011;58572;48.110;19.838;2022-11-20T11:30:15;22.35;;;11.35;;
70920;SDS011;58572;48.110;19.838;2022-11-20T11:32:44;33.20;;;15.10;;
70920;SDS011;58572;48.110;19.838;2022-11-20T11:35:38;27.58;;;11.70;;
70920;SDS011;58572;48.110;19.838;2022-11-20T11:38:12;25.33;;;10.90;;
70920;SDS011;58572;48.110;19.838;2022-11-20T11:40:42;17.60;;;8.55;;
70920;SDS011;58572;48.110;19.838;2022-11-20T11:43:16;19.70;;;8.85;;
70920;SDS011;58572;48.110;19.838;2022-11-20T11:45:59;48.17;;;23.65;;
70920;SDS011;58572;48.110;19.838;2022-11-20T11:48:26;25.27;;;11.10;;
70920;SDS011;58572;48.110;19.838;2022-11-20T11:50:55;45.22;;;15.13;;
70920;SDS011;58572;48.110;19.838;2022-11-20T11:53:23;21.83;;;11.15;;
70920;SDS011;58572;48.110;19.838;2022-11-20T11:55:54;33.13;;;13.32;;
70920;SDS011;58572;48.110;19.838;2022-11-20T11:58:34;23.50;;;10.00;;
70920;SDS011;58572;48.110;19.838;2022-11-20T12:01:12;20.90;;;9.88;;
70920;SDS011;58572;48.110;19.838;2022-11-20T12:03:52;19.92;;;10.15;;
70920;SDS011;58572;48.110;19.838;2022-11-20T12:06:27;22.17;;;10.13;;
70920;SDS011;58572;48.110;19.838;2022-11-20T12:08:57;25.63;;;10.60;;
70920;SDS011;58572;48.110;19.838;2022-11-20T12:11:30;20.52;;;10.05;;
70920;SDS011;58572;48.110;19.838;2022-11-20T12:14:09;23.50;;;11.35;;
70920;SDS011;58572;48.110;19.838;2022-11-20T12:16:41;20.25;;;10.27;;
70920;SDS011;58572;48.110;19.838;2022-11-20T12:19:10;22.60;;;10.25;;
70920;SDS011;58572;48.110;19.838;2022-11-20T12:21:43;21.35;;;10.13;;
70920;SDS011;58572;48.110;19.838;2022-11-20T12:30:07;24.17;;;11.07;;
70920;SDS011;58572;48.110;19.838;2022-11-20T12:32:49;23.80;;;10.18;;
70920;SDS011;58572;48.110;19.838;2022-11-20T12:41:37;25.83;;;12.45;;
70920;SDS011;58572;48.110;19.838;2022-11-20T12:44:34;20.88;;;10.35;;
70920;SDS011;58572;48.110;19.838;2022-11-20T12:47:31;25.38;;;11.32;;
70920;SDS011;58572;48.110;19.838;2022-11-20T12:50:13;29.08;;;12.90;;
70920;SDS011;58572;48.110;19.838;2022-11-20T12:52:50;29.08;;;12.98;;
70920;SDS011;58572;48.110;19.838;2022-11-20T12:55:26;31.00;;;12.57;;
70920;SDS011;58572;48.110;19.838;2022-11-20T12:58:04;25.27;;;11.18;;
70920;SDS011;58572;48.110;19.838;2022-11-20T13:00:43;28.42;;;12.00;;
70920;SDS011;58572;48.110;19.838;2022-11-20T13:03:25;23.17;;;11.20;;
70920;SDS011;58572;48.110;19.838;2022-11-20T13:06:03;23.65;;;11.05;;
70920;SDS011;58572;48.110;19.838;2022-11-20T13:08:38;24.90;;;11.32;;
70920;SDS011;58572;48.110;19.838;2022-11-20T13:11:11;24.88;;;11.63;;
70920;SDS011;58572;48.110;19.838;2022-11-20T13:13:59;24.38;;;11.88;;
70920;SDS011;58572;48.110;19.838;2022-11-20T13:16:39;28.67;;;11.95;;
70920;SDS011;58572;48.110;19.838;2022-11-20T13:19:14;25.00;;;10.93;;
70920;SDS011;58572;48.110;19.838;2022-11-20T13:21:44;28.50;;;12.43;;
70920;SDS011;58572;48.110;19.838;2022-11-20T13:24:21;28.38;;;12.85;;
70920;SDS011;58572;48.110;19.838;2022-11-20T13:27:00;29.13;;;12.63;;
70920;SDS011;58572;48.110;19.838;2022-11-20T13:29:31;25.52;;;10.27;;
70920;SDS011;58572;48.110;19.838;2022-11-20T13:32:03;32.47;;;12.98;;
70920;SDS011;58572;48.110;19.838;2022-11-20T13:34:32;31.73;;;15.48;;
70920;SDS011;58572;48.110;19.838;2022-11-20T13:37:01;28.35;;;13.00;;
70920;SDS011;58572;48.110;19.838;2022-11-20T13:41:57;26.52;;;11.50;;
70920;SDS011;58572;48.110;19.838;2022-11-20T13:44:27;30.10;;;12.90;;
70920;SDS011;58572;48.110;19.838;2022-11-20T13:47:17;30.50;;;12.73;;
70920;SDS011;58572;48.110;19.838;2022-11-20T13:49:47;11.13;;;5.75;;
70920;SDS011;58572;48.110;19.838;2022-11-20T13:52:26;29.95;;;13.95;;
70920;SDS011;58572;48.110;19.838;2022-11-20T13:55:11;28.50;;;11.88;;
70920;SDS011;58572;48.110;19.838;2022-11-20T13:57:48;31.10;;;12.63;;
70920;SDS011;58572;48.110;19.838;2022-11-20T14:00:30;35.08;;;14.48;;
70920;SDS011;58572;48.110;19.838;2022-11-20T14:03:02;30.13;;;13.27;;
70920;SDS011;58572;48.110;19.838;2022-11-20T14:05:38;30.73;;;13.30;;
70920;SDS011;58572;48.110;19.838;2022-11-20T14:08:14;29.63;;;13.52;;
70920;SDS011;58572;48.110;19.838;2022-11-20T14:10:50;32.92;;;14.80;;
70920;SDS011;58572;48.110;19.838;2022-11-20T14:13:17;32.03;;;12.73;;
70920;SDS011;58572;48.110;19.838;2022-11-20T14:15:48;33.97;;;14.68;;
70920;SDS011;58572;48.110;19.838;2022-11-20T14:18:25;37.83;;;14.60;;
70920;SDS011;58572;48.110;19.838;2022-11-20T14:20:52;33.72;;;14.70;;
70920;SDS011;58572;48.110;19.838;2022-11-20T14:23:23;35.88;;;14.13;;
70920;SDS011;58572;48.110;19.838;2022-11-20T14:25:52;32.38;;;14.95;;
70920;SDS011;58572;48.110;19.838;2022-11-20T14:28:21;34.75;;;14.50;;
70920;SDS011;58572;48.110;19.838;2022-11-20T14:30:53;32.53;;;13.93;;
70920;SDS011;58572;48.110;19.838;2022-11-20T14:33:22;32.47;;;13.45;;
70920;SDS011;58572;48.110;19.838;2022-11-20T14:35:51;34.00;;;13.20;;
70920;SDS011;58572;48.110;19.838;2022-11-20T14:38:21;34.80;;;13.82;;
70920;SDS011;58572;48.110;19.838;2022-11-20T14:40:51;40.30;;;14.90;;
70920;SDS011;58572;48.110;19.838;2022-11-20T14:43:19;40.03;;;17.45;;
70920;SDS011;58572;48.110;19.838;2022-11-20T14:45:54;30.65;;;13.43;;
70920;SDS011;58572;48.110;19.838;2022-11-20T14:48:26;36.90;;;15.13;;
70920;SDS011;58572;48.110;19.838;2022-11-20T14:50:57;30.63;;;12.40;;
70920;SDS011;58572;48.110;19.838;2022-11-20T14:53:24;31.33;;;13.73;;
70920;SDS011;58572;48.110;19.838;2022-11-20T14:55:55;27.95;;;12.35;;